createdAt,value
2023-04-16T00:00:07.300Z,94743.00
2023-04-16T00:01:07.320Z,94743.00
2023-04-16T00:02:07.361Z,94743.00
2023-04-16T00:03:07.527Z,94747.00
2023-04-16T00:04:07.616Z,94745.00
2023-04-16T00:05:07.416Z,94747.00
2023-04-16T00:06:07.272Z,94747.00
2023-04-16T00:07:07.283Z,94745.00
2023-04-16T00:08:07.260Z,94747.00
2023-04-16T00:09:07.576Z,94747.00
2023-04-16T00:10:07.237Z,94747.00
2023-04-16T00:11:07.223Z,94747.00
2023-04-16T00:12:07.222Z,94747.00
2023-04-16T00:13:07.224Z,94747.00
2023-04-16T00:14:07.224Z,94747.00
2023-04-16T00:15:07.201Z,94747.00
2023-04-16T00:16:07.216Z,94745.00
2023-04-16T00:17:07.243Z,94745.00
2023-04-16T00:18:07.189Z,94745.00
2023-04-16T00:19:07.269Z,94745.00
2023-04-16T00:20:07.181Z,94745.00
2023-04-16T00:21:07.168Z,94749.00
2023-04-16T00:22:07.200Z,94741.00
2023-04-16T00:23:07.150Z,94747.00
2023-04-16T00:24:07.155Z,94749.00
2023-04-16T00:25:07.173Z,94745.00
2023-04-16T00:26:07.121Z,94745.00
2023-04-16T00:27:07.126Z,94751.00
2023-04-16T00:28:07.553Z,94747.00
2023-04-16T00:29:07.222Z,94745.00
2023-04-16T00:30:07.137Z,94749.00
2023-04-16T00:31:07.115Z,94749.00
2023-04-16T00:32:07.116Z,94749.00
2023-04-16T00:33:07.094Z,94749.00
2023-04-16T00:34:07.077Z,94749.00
2023-04-16T00:35:07.086Z,94747.00
2023-04-16T00:36:07.077Z,94745.00
2023-04-16T00:37:07.056Z,94751.00
2023-04-16T00:38:07.097Z,94747.00
2023-04-16T00:39:07.193Z,94749.00
2023-04-16T00:40:07.042Z,94747.00
2023-04-16T00:41:07.041Z,94751.00
2023-04-16T00:42:07.021Z,94755.00
2023-04-16T00:43:07.065Z,94755.00
2023-04-16T00:44:07.027Z,94747.00
2023-04-16T00:45:07.005Z,94749.00
2023-04-16T00:46:07.086Z,94751.00
2023-04-16T00:47:07.011Z,94753.00
2023-04-16T00:48:07.020Z,94759.00
2023-04-16T00:49:07.113Z,94755.00
2023-04-16T00:50:06.986Z,94753.00
2023-04-16T00:51:06.957Z,94753.00
2023-04-16T00:52:06.984Z,94753.00
2023-04-16T00:53:07.304Z,94753.00
2023-04-16T00:54:06.936Z,94753.00
2023-04-16T00:55:06.948Z,94753.00
2023-04-16T00:56:06.918Z,94753.00
2023-04-16T00:57:06.929Z,94753.00
2023-04-16T00:58:07.240Z,94751.00
2023-04-16T00:59:07.025Z,94755.00
2023-04-16T01:00:06.905Z,94755.00
2023-04-16T01:01:06.952Z,94753.00
2023-04-16T01:02:07.011Z,94757.00
2023-04-16T01:03:06.988Z,94755.00
2023-04-16T01:04:06.943Z,94755.00
2023-04-16T01:05:06.878Z,94757.00
2023-04-16T01:06:06.865Z,94755.00
2023-04-16T01:07:06.837Z,94751.00
2023-04-16T01:08:06.883Z,94751.00
2023-04-16T01:09:06.930Z,94749.00
2023-04-16T01:10:06.829Z,94751.00
2023-04-16T01:11:06.811Z,94751.00
2023-04-16T01:12:06.820Z,94751.00
2023-04-16T01:13:06.825Z,94749.00
2023-04-16T01:14:06.789Z,94749.00
2023-04-16T01:15:06.791Z,94749.00
2023-04-16T01:16:06.815Z,94749.00
2023-04-16T01:17:06.792Z,94753.00
2023-04-16T01:18:06.937Z,94751.00
2023-04-16T01:19:06.784Z,94751.00
2023-04-16T01:20:06.767Z,94753.00
2023-04-16T01:21:06.774Z,94751.00
2023-04-16T01:22:06.854Z,94753.00
2023-04-16T01:23:06.744Z,94753.00
2023-04-16T01:24:06.750Z,94755.00
2023-04-16T01:25:06.724Z,94753.00
2023-04-16T01:26:06.754Z,94755.00
2023-04-16T01:27:06.712Z,94757.00
2023-04-16T01:28:06.730Z,94759.00
2023-04-16T01:29:06.754Z,94761.00
2023-04-16T01:30:06.718Z,94761.00
2023-04-16T01:31:06.706Z,94761.00
2023-04-16T01:32:06.677Z,94763.00
2023-04-16T01:33:06.690Z,94761.00
2023-04-16T01:34:06.678Z,94763.00
2023-04-16T01:35:06.666Z,94763.00
2023-04-16T01:36:06.660Z,94767.00
2023-04-16T01:37:06.667Z,94763.00
2023-04-16T01:38:06.686Z,94763.00
2023-04-16T01:39:06.810Z,94765.00
2023-04-16T01:40:06.641Z,94767.00
2023-04-16T01:41:06.630Z,94765.00
2023-04-16T01:42:06.636Z,94765.00
2023-04-16T01:43:06.593Z,94769.00
2023-04-16T01:44:06.602Z,94769.00
2023-04-16T01:45:06.598Z,94769.00
2023-04-16T01:46:06.589Z,94769.00
2023-04-16T01:47:06.640Z,94770.00
2023-04-16T01:48:06.586Z,94770.00
2023-04-16T01:49:06.585Z,94770.00
2023-04-16T01:50:06.576Z,94770.00
2023-04-16T01:51:06.537Z,94774.00
2023-04-16T01:52:06.614Z,94776.00
2023-04-16T01:53:06.544Z,94776.00
2023-04-16T01:54:06.513Z,94776.00
2023-04-16T01:55:06.539Z,94774.00
2023-04-16T01:56:06.540Z,94774.00
2023-04-16T01:57:06.537Z,94776.00
2023-04-16T01:58:06.505Z,94776.00
2023-04-16T01:59:08.651Z,94774.00
2023-04-16T02:00:06.486Z,94776.00
2023-04-16T02:01:06.544Z,94776.00
2023-04-16T02:02:06.504Z,94776.00
2023-04-16T02:03:06.559Z,94780.00
2023-04-16T02:04:06.496Z,94776.00
2023-04-16T02:05:06.482Z,94776.00
2023-04-16T02:06:06.460Z,94774.00
2023-04-16T02:07:06.439Z,94776.00
2023-04-16T02:08:06.479Z,94772.00
2023-04-16T02:09:06.462Z,94774.00
2023-04-16T02:10:06.478Z,94776.00
2023-04-16T02:11:06.483Z,94774.00
2023-04-16T02:12:06.489Z,94776.00
2023-04-16T02:13:06.488Z,94780.00
2023-04-16T02:14:06.516Z,94776.00
2023-04-16T02:15:06.489Z,94776.00
2023-04-16T02:16:06.596Z,94778.00
2023-04-16T02:17:06.529Z,94776.00
2023-04-16T02:18:06.620Z,94776.00
2023-04-16T02:19:06.732Z,94776.00
2023-04-16T02:20:06.557Z,94778.00
2023-04-16T02:21:06.568Z,94780.00
2023-04-16T02:22:06.563Z,94782.00
2023-04-16T02:23:06.567Z,94780.00
2023-04-16T02:24:06.577Z,94782.00
2023-04-16T02:25:06.586Z,94782.00
2023-04-16T02:26:06.581Z,94782.00
2023-04-16T02:27:06.606Z,94784.00
2023-04-16T02:28:06.589Z,94782.00
2023-04-16T02:29:06.706Z,94784.00
2023-04-16T02:30:06.614Z,94784.00
2023-04-16T02:31:06.620Z,94784.00
2023-04-16T02:32:06.675Z,94782.00
2023-04-16T02:33:06.700Z,94784.00
2023-04-16T02:34:06.688Z,94782.00
2023-04-16T02:35:06.706Z,94784.00
2023-04-16T02:36:06.657Z,94784.00
2023-04-16T02:37:06.711Z,94786.00
2023-04-16T02:38:06.714Z,94784.00
2023-04-16T02:39:06.863Z,94788.00
2023-04-16T02:40:06.753Z,94786.00
2023-04-16T02:41:06.765Z,94786.00
2023-04-16T02:42:06.779Z,94786.00
2023-04-16T02:43:06.791Z,94786.00
2023-04-16T02:44:06.803Z,94786.00
2023-04-16T02:45:06.773Z,94788.00
2023-04-16T02:46:06.883Z,94792.00
2023-04-16T02:47:06.863Z,94790.00
2023-04-16T02:48:06.871Z,94790.00
2023-04-16T02:49:06.988Z,94790.00
2023-04-16T02:50:06.913Z,94790.00
2023-04-16T02:51:06.892Z,94790.00
2023-04-16T02:52:06.915Z,94786.00
2023-04-16T02:53:06.956Z,94792.00
2023-04-16T02:54:06.952Z,94792.00
2023-04-16T02:55:06.944Z,94796.00
2023-04-16T02:56:06.989Z,94794.00
2023-04-16T02:57:06.982Z,94794.00
2023-04-16T02:58:06.997Z,94796.00
2023-04-16T02:59:07.176Z,94796.00
2023-04-16T03:00:07.092Z,94796.00
2023-04-16T03:01:07.141Z,94798.00
2023-04-16T03:02:07.110Z,94800.00
2023-04-16T03:03:07.130Z,94800.00
2023-04-16T03:04:07.107Z,94800.00
2023-04-16T03:05:07.122Z,94800.00
2023-04-16T03:06:07.157Z,94806.00
2023-04-16T03:07:07.117Z,94804.00
2023-04-16T03:08:07.143Z,94802.00
2023-04-16T03:09:07.491Z,94806.00
2023-04-16T03:10:07.202Z,94806.00
2023-04-16T03:11:07.848Z,94804.00
2023-04-16T03:12:07.204Z,94806.00
2023-04-16T03:13:07.236Z,94806.00
2023-04-16T03:14:07.221Z,94810.00
2023-04-16T03:15:07.284Z,94810.00
2023-04-16T03:16:07.277Z,94808.00
2023-04-16T03:17:07.288Z,94810.00
2023-04-16T03:18:07.313Z,94810.00
2023-04-16T03:19:07.460Z,94810.00
2023-04-16T03:20:07.361Z,94812.00
2023-04-16T03:21:07.363Z,94812.00
2023-04-16T03:22:07.376Z,94814.00
2023-04-16T03:23:07.382Z,94814.00
2023-04-16T03:24:07.431Z,94814.00
2023-04-16T03:25:07.436Z,94816.00
2023-04-16T03:26:07.439Z,94812.00
2023-04-16T03:27:07.455Z,94814.00
2023-04-16T03:28:07.482Z,94814.00
2023-04-16T03:29:07.714Z,94814.00
2023-04-16T03:30:07.545Z,94812.00
2023-04-16T03:31:07.603Z,94810.00
2023-04-16T03:32:07.562Z,94808.00
2023-04-16T03:33:07.598Z,94808.00
2023-04-16T03:34:07.589Z,94808.00
2023-04-16T03:35:07.623Z,94806.00
2023-04-16T03:36:07.624Z,94808.00
2023-04-16T03:37:07.697Z,94808.00
2023-04-16T03:38:07.663Z,94810.00
2023-04-16T03:39:07.894Z,94808.00
2023-04-16T03:40:07.700Z,94812.00
2023-04-16T03:41:07.695Z,94810.00
2023-04-16T03:42:07.726Z,94810.00
2023-04-16T03:43:07.734Z,94812.00
2023-04-16T03:44:07.767Z,94812.00
2023-04-16T03:45:07.765Z,94814.00
2023-04-16T03:46:07.881Z,94814.00
2023-04-16T03:47:07.810Z,94812.00
2023-04-16T03:48:07.840Z,94814.00
2023-04-16T03:49:08.344Z,94814.00
2023-04-16T03:50:07.879Z,94814.00
2023-04-16T03:51:07.875Z,94816.00
2023-04-16T03:52:07.885Z,94816.00
2023-04-16T03:53:07.935Z,94819.00
2023-04-16T03:54:07.962Z,94819.00
2023-04-16T03:55:07.967Z,94819.00
2023-04-16T03:56:07.991Z,94819.00
2023-04-16T03:57:08.015Z,94821.00
2023-04-16T03:58:08.025Z,94819.00
2023-04-16T03:59:08.262Z,94821.00
2023-04-16T04:00:08.065Z,94819.00
2023-04-16T04:01:08.080Z,94823.00
2023-04-16T04:02:08.201Z,94821.00
2023-04-16T04:03:08.311Z,94819.00
2023-04-16T04:04:08.376Z,94821.00
2023-04-16T04:05:08.183Z,94821.00
2023-04-16T04:06:08.213Z,94823.00
2023-04-16T04:07:08.397Z,94825.00
2023-04-16T04:08:08.235Z,94823.00
2023-04-16T04:09:08.418Z,94829.00
2023-04-16T04:10:08.243Z,94831.00
2023-04-16T04:11:08.287Z,94829.00
2023-04-16T04:12:08.294Z,94831.00
2023-04-16T04:13:08.332Z,94833.00
2023-04-16T04:14:08.351Z,94835.00
2023-04-16T04:15:08.368Z,94835.00
2023-04-16T04:16:08.444Z,94835.00
2023-04-16T04:17:08.425Z,94835.00
2023-04-16T04:18:08.438Z,94833.00
2023-04-16T04:19:08.604Z,94833.00
2023-04-16T04:20:08.528Z,94833.00
2023-04-16T04:21:08.509Z,94835.00
2023-04-16T04:22:08.524Z,94835.00
2023-04-16T04:23:08.584Z,94839.00
2023-04-16T04:24:08.559Z,94839.00
2023-04-16T04:25:08.585Z,94843.00
2023-04-16T04:26:08.611Z,94843.00
2023-04-16T04:27:08.607Z,94841.00
2023-04-16T04:28:08.663Z,94841.00
2023-04-16T04:29:09.022Z,94845.00
2023-04-16T04:30:08.682Z,94845.00
2023-04-16T04:31:08.716Z,94839.00
2023-04-16T04:32:08.724Z,94847.00
2023-04-16T04:33:08.753Z,94845.00
2023-04-16T04:34:08.738Z,94849.00
2023-04-16T04:35:08.730Z,94849.00
2023-04-16T04:36:08.781Z,94851.00
2023-04-16T04:37:08.758Z,94851.00
2023-04-16T04:38:08.784Z,94853.00
2023-04-16T04:39:08.909Z,94855.00
2023-04-16T04:40:08.820Z,94857.00
2023-04-16T04:41:08.837Z,94855.00
2023-04-16T04:42:08.832Z,94859.00
2023-04-16T04:43:08.869Z,94859.00
2023-04-16T04:44:08.860Z,94857.00
2023-04-16T04:45:08.915Z,94855.00
2023-04-16T04:46:08.926Z,94859.00
2023-04-16T04:47:08.934Z,94861.00
2023-04-16T04:48:08.959Z,94861.00
2023-04-16T04:49:09.108Z,94863.00
2023-04-16T04:50:08.981Z,94864.00
2023-04-16T04:51:09.017Z,94864.00
2023-04-16T04:52:09.016Z,94863.00
2023-04-16T04:53:09.076Z,94866.00
2023-04-16T04:54:09.089Z,94864.00
2023-04-16T04:55:09.082Z,94864.00
2023-04-16T04:56:12.878Z,94864.00
2023-04-16T04:57:09.099Z,94866.00
2023-04-16T04:58:09.136Z,94864.00
2023-04-16T04:59:09.275Z,94866.00
2023-04-16T05:00:09.084Z,94866.00
2023-04-16T05:01:09.208Z,94866.00
2023-04-16T05:02:09.114Z,94868.00
2023-04-16T05:03:09.175Z,94868.00
2023-04-16T05:04:09.122Z,94866.00
2023-04-16T05:05:09.108Z,94866.00
2023-04-16T05:06:09.042Z,94866.00
2023-04-16T05:07:09.092Z,94866.00
2023-04-16T05:08:09.050Z,94870.00
2023-04-16T05:09:09.235Z,94872.00
2023-04-16T05:10:09.028Z,94870.00
2023-04-16T05:11:09.022Z,94872.00
2023-04-16T05:12:09.012Z,94874.00
2023-04-16T05:13:08.982Z,94872.00
2023-04-16T05:14:09.042Z,94878.00
2023-04-16T05:15:09.013Z,94878.00
2023-04-16T05:16:09.015Z,94880.00
2023-04-16T05:17:09.007Z,94878.00
2023-04-16T05:18:08.976Z,94880.00
2023-04-16T05:19:09.137Z,94880.00
2023-04-16T05:20:08.979Z,94880.00
2023-04-16T05:21:08.935Z,94882.00
2023-04-16T05:22:08.964Z,94884.00
2023-04-16T05:23:08.944Z,94884.00
2023-04-16T05:24:08.947Z,94886.00
2023-04-16T05:25:08.921Z,94884.00
2023-04-16T05:26:08.900Z,94886.00
2023-04-16T05:27:08.906Z,94884.00
2023-04-16T05:28:08.928Z,94886.00
2023-04-16T05:29:09.123Z,94894.00
2023-04-16T05:30:08.888Z,94896.00
2023-04-16T05:31:08.984Z,94896.00
2023-04-16T05:32:09.410Z,94898.00
2023-04-16T05:33:08.894Z,94900.00
2023-04-16T05:34:08.853Z,94900.00
2023-04-16T05:35:08.846Z,94904.00
2023-04-16T05:36:08.860Z,94902.00
2023-04-16T05:37:08.825Z,94906.00
2023-04-16T05:38:08.815Z,94908.00
2023-04-16T05:39:09.158Z,94910.00
2023-04-16T05:40:08.813Z,94910.00
2023-04-16T05:41:08.788Z,94912.00
2023-04-16T05:42:08.800Z,94912.00
2023-04-16T05:43:08.779Z,94912.00
2023-04-16T05:44:08.812Z,94912.00
2023-04-16T05:45:08.811Z,94913.00
2023-04-16T05:46:08.820Z,94912.00
2023-04-16T05:47:08.788Z,94912.00
2023-04-16T05:48:08.830Z,94912.00
2023-04-16T05:49:09.622Z,94912.00
2023-04-16T05:50:08.885Z,94915.00
2023-04-16T05:51:08.913Z,94913.00
2023-04-16T05:52:08.934Z,94915.00
2023-04-16T05:53:08.954Z,94917.00
2023-04-16T05:54:08.957Z,94919.00
2023-04-16T05:55:08.989Z,94925.00
2023-04-16T05:56:09.029Z,94921.00
2023-04-16T05:57:09.020Z,94929.00
2023-04-16T05:58:09.046Z,94923.00
2023-04-16T05:59:09.306Z,94925.00
2023-04-16T06:00:09.110Z,94923.00
2023-04-16T06:01:09.133Z,94925.00
2023-04-16T06:02:09.240Z,94925.00
2023-04-16T06:03:09.342Z,94927.00
2023-04-16T06:04:09.384Z,94927.00
2023-04-16T06:05:09.280Z,94929.00
2023-04-16T06:06:09.224Z,94929.00
2023-04-16T06:07:09.220Z,94931.00
2023-04-16T06:08:09.309Z,94935.00
2023-04-16T06:09:09.498Z,94933.00
2023-04-16T06:10:09.330Z,94937.00
2023-04-16T06:11:09.349Z,94937.00
2023-04-16T06:12:09.362Z,94933.00
2023-04-16T06:13:09.350Z,94937.00
2023-04-16T06:14:09.367Z,94937.00
2023-04-16T06:15:09.406Z,94937.00
2023-04-16T06:16:09.461Z,94933.00
2023-04-16T06:17:09.435Z,94933.00
2023-04-16T06:18:09.496Z,94939.00
2023-04-16T06:19:09.624Z,94937.00
2023-04-16T06:20:09.518Z,94935.00
2023-04-16T06:21:09.498Z,94939.00
2023-04-16T06:22:09.529Z,94937.00
2023-04-16T06:23:09.561Z,94939.00
2023-04-16T06:24:09.577Z,94943.00
2023-04-16T06:25:09.617Z,94941.00
2023-04-16T06:26:09.608Z,94937.00
2023-04-16T06:27:09.625Z,94941.00
2023-04-16T06:28:09.658Z,94941.00
2023-04-16T06:29:09.786Z,94939.00
2023-04-16T06:30:09.669Z,94939.00
2023-04-16T06:31:09.699Z,94941.00
2023-04-16T06:32:09.718Z,94943.00
2023-04-16T06:33:09.745Z,94943.00
2023-04-16T06:34:09.728Z,94945.00
2023-04-16T06:35:09.762Z,94945.00
2023-04-16T06:36:09.768Z,94941.00
2023-04-16T06:37:10.796Z,94941.00
2023-04-16T06:38:09.817Z,94943.00
2023-04-16T06:39:10.147Z,94943.00
2023-04-16T06:40:09.879Z,94943.00
2023-04-16T06:41:09.882Z,94941.00
2023-04-16T06:42:09.883Z,94939.00
2023-04-16T06:43:09.972Z,94939.00
2023-04-16T06:44:09.926Z,94941.00
2023-04-16T06:45:09.989Z,94941.00
2023-04-16T06:46:09.979Z,94939.00
2023-04-16T06:47:10.050Z,94941.00
2023-04-16T06:48:10.049Z,94939.00
2023-04-16T06:49:10.212Z,94939.00
2023-04-16T06:50:10.116Z,94937.00
2023-04-16T06:51:10.119Z,94937.00
2023-04-16T06:52:10.095Z,94935.00
2023-04-16T06:53:10.131Z,94939.00
2023-04-16T06:54:10.133Z,94937.00
2023-04-16T06:55:10.175Z,94937.00
2023-04-16T06:56:10.163Z,94939.00
2023-04-16T06:57:10.194Z,94937.00
2023-04-16T06:58:10.176Z,94935.00
2023-04-16T06:59:10.465Z,94937.00
2023-04-16T07:00:10.208Z,94935.00
2023-04-16T07:01:10.276Z,94935.00
2023-04-16T07:02:10.301Z,94935.00
2023-04-16T07:03:10.386Z,94937.00
2023-04-16T07:04:10.335Z,94935.00
2023-04-16T07:05:10.254Z,94935.00
2023-04-16T07:06:10.257Z,94939.00
2023-04-16T07:07:10.284Z,94941.00
2023-04-16T07:08:10.307Z,94941.00
2023-04-16T07:09:10.481Z,94945.00
2023-04-16T07:10:10.348Z,94945.00
2023-04-16T07:11:10.322Z,94947.00
2023-04-16T07:12:10.319Z,94947.00
2023-04-16T07:13:10.450Z,94949.00
2023-04-16T07:14:10.331Z,94949.00
2023-04-16T07:15:10.359Z,94949.00
2023-04-16T07:16:10.407Z,94951.00
2023-04-16T07:17:10.376Z,94947.00
2023-04-16T07:18:10.455Z,94949.00
2023-04-16T07:19:10.535Z,94947.00
2023-04-16T07:20:10.413Z,94949.00
2023-04-16T07:21:10.369Z,94949.00
2023-04-16T07:22:10.378Z,94949.00
2023-04-16T07:23:10.432Z,94949.00
2023-04-16T07:24:10.434Z,94949.00
2023-04-16T07:25:10.457Z,94949.00
2023-04-16T07:26:10.476Z,94947.00
2023-04-16T07:27:10.475Z,94949.00
2023-04-16T07:28:10.490Z,94953.00
2023-04-16T07:29:10.650Z,94951.00
2023-04-16T07:30:10.494Z,94953.00
2023-04-16T07:31:10.532Z,94955.00
2023-04-16T07:32:10.816Z,94957.00
2023-04-16T07:33:10.563Z,94959.00
2023-04-16T07:34:10.588Z,94957.00
2023-04-16T07:35:10.581Z,94959.00
2023-04-16T07:36:10.582Z,94960.00
2023-04-16T07:37:10.588Z,94962.00
2023-04-16T07:38:10.602Z,94964.00
2023-04-16T07:39:10.744Z,94964.00
2023-04-16T07:40:10.630Z,94964.00
2023-04-16T07:41:10.643Z,94964.00
2023-04-16T07:42:10.669Z,94966.00
2023-04-16T07:43:10.710Z,94966.00
2023-04-16T07:44:10.721Z,94966.00
2023-04-16T07:45:10.728Z,94968.00
2023-04-16T07:46:10.763Z,94968.00
2023-04-16T07:47:10.762Z,94968.00
2023-04-16T07:48:10.743Z,94970.00
2023-04-16T07:49:10.868Z,94970.00
2023-04-16T07:50:10.751Z,94968.00
2023-04-16T07:51:10.771Z,94970.00
2023-04-16T07:52:10.772Z,94970.00
2023-04-16T07:53:10.799Z,94972.00
2023-04-16T07:54:10.811Z,94972.00
2023-04-16T07:55:10.793Z,94972.00
2023-04-16T07:56:10.819Z,94974.00
2023-04-16T07:57:10.824Z,94974.00
2023-04-16T07:58:10.875Z,94972.00
2023-04-16T07:59:22.078Z,94976.00
2023-04-16T08:00:11.859Z,94972.00
2023-04-16T08:01:10.810Z,94972.00
2023-04-16T08:02:10.877Z,94970.00
2023-04-16T08:03:11.000Z,94974.00
2023-04-16T08:04:10.953Z,94974.00
2023-04-16T08:05:11.503Z,94974.00
2023-04-16T08:06:10.818Z,94974.00
2023-04-16T08:07:10.809Z,94978.00
2023-04-16T08:08:10.778Z,94980.00
2023-04-16T08:09:10.939Z,94980.00
2023-04-16T08:10:10.777Z,94980.00
2023-04-16T08:11:10.742Z,94982.00
2023-04-16T08:12:10.751Z,94982.00
2023-04-16T08:13:10.742Z,94984.00
2023-04-16T08:14:10.746Z,94984.00
2023-04-16T08:15:10.722Z,94984.00
2023-04-16T08:16:10.813Z,94986.00
2023-04-16T08:17:10.708Z,94984.00
2023-04-16T08:18:10.711Z,94984.00
2023-04-16T08:19:11.136Z,94988.00
2023-04-16T08:20:12.202Z,94992.00
2023-04-16T08:21:10.718Z,94992.00
2023-04-16T08:22:10.707Z,94996.00
2023-04-16T08:23:10.683Z,94994.00
2023-04-16T08:24:10.653Z,94996.00
2023-04-16T08:25:10.688Z,94996.00
2023-04-16T08:26:10.657Z,94998.00
2023-04-16T08:27:18.652Z,94996.00
2023-04-16T08:28:11.668Z,94998.00
2023-04-16T08:29:10.859Z,94998.00
2023-04-16T08:30:10.662Z,94998.00
2023-04-16T08:31:10.656Z,95000.00
2023-04-16T08:32:10.632Z,94998.00
2023-04-16T08:33:10.669Z,95000.00
2023-04-16T08:34:10.606Z,95000.00
2023-04-16T08:35:10.608Z,95000.00
2023-04-16T08:36:10.579Z,95000.00
2023-04-16T08:37:10.573Z,95002.00
2023-04-16T08:38:10.581Z,95002.00
2023-04-16T08:39:10.884Z,95002.00
2023-04-16T08:40:10.586Z,95004.00
2023-04-16T08:41:10.568Z,95006.00
2023-04-16T08:42:10.527Z,95006.00
2023-04-16T08:43:10.563Z,95006.00
2023-04-16T08:44:10.538Z,95004.00
2023-04-16T08:45:10.538Z,95004.00
2023-04-16T08:46:10.629Z,95008.00
2023-04-16T08:47:10.517Z,95006.00
2023-04-16T08:48:10.532Z,95006.00
2023-04-16T08:49:10.644Z,95008.00
2023-04-16T08:50:10.510Z,95006.00
2023-04-16T08:51:10.478Z,95006.00
2023-04-16T08:52:10.495Z,95008.00
2023-04-16T08:53:10.496Z,95010.00
2023-04-16T08:54:10.518Z,95008.00
2023-04-16T08:55:10.478Z,95010.00
2023-04-16T08:56:10.488Z,95010.00
2023-04-16T08:57:10.438Z,95008.00
2023-04-16T08:58:10.437Z,95008.00
2023-04-16T08:59:10.726Z,95008.00
2023-04-16T09:00:10.448Z,95008.00
2023-04-16T09:01:10.451Z,95008.00
2023-04-16T09:02:10.463Z,95008.00
2023-04-16T09:03:10.590Z,95008.00
2023-04-16T09:04:10.688Z,95010.00
2023-04-16T09:05:10.424Z,95008.00
2023-04-16T09:06:10.403Z,95008.00
2023-04-16T09:07:10.411Z,95010.00
2023-04-16T09:08:10.416Z,95010.00
2023-04-16T09:09:10.638Z,95010.00
2023-04-16T09:10:10.369Z,95008.00
2023-04-16T09:11:10.359Z,95013.00
2023-04-16T09:12:10.397Z,95013.00
2023-04-16T09:13:10.358Z,95013.00
2023-04-16T09:14:10.348Z,95013.00
2023-04-16T09:15:10.353Z,95013.00
2023-04-16T09:16:10.372Z,95015.00
2023-04-16T09:17:10.332Z,95013.00
2023-04-16T09:18:10.311Z,95015.00
2023-04-16T09:19:10.487Z,95015.00
2023-04-16T09:20:10.300Z,95013.00
2023-04-16T09:21:10.302Z,95015.00
2023-04-16T09:22:10.301Z,95017.00
2023-04-16T09:23:10.312Z,95015.00
2023-04-16T09:24:10.317Z,95019.00
2023-04-16T09:25:10.365Z,95015.00
2023-04-16T09:26:10.372Z,95015.00
2023-04-16T09:27:10.400Z,95015.00
2023-04-16T09:28:10.404Z,95017.00
2023-04-16T09:29:10.535Z,95015.00
2023-04-16T09:30:10.372Z,95015.00
2023-04-16T09:31:10.406Z,95015.00
2023-04-16T09:32:10.430Z,95015.00
2023-04-16T09:33:10.413Z,95017.00
2023-04-16T09:34:10.475Z,95013.00
2023-04-16T09:35:10.503Z,95017.00
2023-04-16T09:36:10.512Z,95011.00
2023-04-16T09:37:10.546Z,95013.00
2023-04-16T09:38:10.541Z,95011.00
2023-04-16T09:39:10.749Z,95013.00
2023-04-16T09:40:10.699Z,95013.00
2023-04-16T09:41:10.655Z,95011.00
2023-04-16T09:42:10.644Z,95011.00
2023-04-16T09:43:10.657Z,95011.00
2023-04-16T09:44:10.716Z,95013.00
2023-04-16T09:45:10.729Z,95010.00
2023-04-16T09:46:10.789Z,95013.00
2023-04-16T09:47:10.786Z,95010.00
2023-04-16T09:48:10.837Z,95011.00
2023-04-16T09:49:11.119Z,95011.00
2023-04-16T09:50:12.610Z,95010.00
2023-04-16T09:51:11.026Z,95008.00
2023-04-16T09:52:11.072Z,95010.00
2023-04-16T09:53:11.156Z,95008.00
2023-04-16T09:54:11.193Z,95008.00
2023-04-16T09:55:11.196Z,95008.00
2023-04-16T09:56:11.255Z,95011.00
2023-04-16T09:57:11.272Z,95010.00
2023-04-16T09:58:11.321Z,95010.00
2023-04-16T09:59:11.566Z,95008.00
2023-04-16T10:00:11.629Z,95008.00
2023-04-16T10:01:11.585Z,95008.00
2023-04-16T10:02:14.576Z,95008.00
2023-04-16T10:03:11.630Z,95008.00
2023-04-16T10:04:11.622Z,95008.00
2023-04-16T10:05:11.522Z,95006.00
2023-04-16T10:06:11.527Z,95008.00
2023-04-16T10:07:11.532Z,95008.00
2023-04-16T10:08:11.508Z,95006.00
2023-04-16T10:09:11.552Z,95008.00
2023-04-16T10:10:11.505Z,95006.00
2023-04-16T10:11:11.502Z,95008.00
2023-04-16T10:12:11.479Z,95008.00
2023-04-16T10:13:11.500Z,95006.00
2023-04-16T10:14:11.525Z,95006.00
2023-04-16T10:15:11.559Z,95006.00
2023-04-16T10:16:11.777Z,95004.00
2023-04-16T10:17:11.795Z,95006.00
2023-04-16T10:18:11.806Z,95006.00
2023-04-16T10:19:12.055Z,95006.00
2023-04-16T10:20:11.915Z,95004.00
2023-04-16T10:21:11.956Z,95002.00
2023-04-16T10:22:12.047Z,95002.00
2023-04-16T10:23:12.082Z,95002.00
2023-04-16T10:24:12.152Z,95000.00
2023-04-16T10:25:12.205Z,95000.00
2023-04-16T10:26:12.279Z,95002.00
2023-04-16T10:27:12.325Z,95002.00
2023-04-16T10:28:12.374Z,95004.00
2023-04-16T10:29:12.621Z,95000.00
2023-04-16T10:30:12.452Z,95004.00
2023-04-16T10:31:12.578Z,95002.00
2023-04-16T10:32:12.617Z,95004.00
2023-04-16T10:33:12.682Z,95004.00
2023-04-16T10:34:12.731Z,95004.00
2023-04-16T10:35:12.776Z,95004.00
2023-04-16T10:36:12.925Z,95002.00
2023-04-16T10:37:12.912Z,95002.00
2023-04-16T10:38:12.968Z,95002.00
2023-04-16T10:39:15.508Z,95008.00
2023-04-16T10:40:13.013Z,95008.00
2023-04-16T10:41:13.021Z,95008.00
2023-04-16T10:42:13.070Z,95010.00
2023-04-16T10:43:12.979Z,95008.00
2023-04-16T10:44:12.973Z,95006.00
2023-04-16T10:45:12.983Z,95006.00
2023-04-16T10:46:12.979Z,95008.00
2023-04-16T10:47:12.986Z,95008.00
2023-04-16T10:48:12.975Z,95004.00
2023-04-16T10:49:12.977Z,95006.00
2023-04-16T10:50:12.947Z,95004.00
2023-04-16T10:51:12.933Z,95006.00
2023-04-16T10:52:12.929Z,95004.00
2023-04-16T10:53:12.905Z,95004.00
2023-04-16T10:54:12.932Z,95002.00
2023-04-16T10:55:12.906Z,95002.00
2023-04-16T10:56:12.912Z,95006.00
2023-04-16T10:57:12.907Z,95006.00
2023-04-16T10:58:12.884Z,95006.00
2023-04-16T10:59:13.073Z,95006.00
2023-04-16T11:00:12.868Z,95006.00
2023-04-16T11:01:12.934Z,95004.00
2023-04-16T11:02:12.945Z,95004.00
2023-04-16T11:03:12.987Z,95002.00
2023-04-16T11:04:13.069Z,95000.00
2023-04-16T11:05:12.982Z,94998.00
2023-04-16T11:06:13.068Z,95002.00
2023-04-16T11:07:13.106Z,95000.00
2023-04-16T11:08:13.148Z,95002.00
2023-04-16T11:09:13.253Z,95000.00
2023-04-16T11:10:13.259Z,94998.00
2023-04-16T11:11:13.329Z,95002.00
2023-04-16T11:12:13.404Z,95000.00
2023-04-16T11:13:14.012Z,94998.00
2023-04-16T11:14:13.506Z,94998.00
2023-04-16T11:15:13.583Z,94998.00
2023-04-16T11:16:13.660Z,95002.00
2023-04-16T11:17:13.666Z,95002.00
2023-04-16T11:18:13.798Z,95004.00
2023-04-16T11:19:13.802Z,95004.00
2023-04-16T11:20:20.246Z,95002.00
2023-04-16T11:21:14.854Z,95004.00
2023-04-16T11:22:13.834Z,95004.00
2023-04-16T11:23:13.888Z,95006.00
2023-04-16T11:24:13.871Z,95004.00
2023-04-16T11:25:13.834Z,95002.00
2023-04-16T11:26:13.807Z,95002.00
2023-04-16T11:27:13.927Z,95002.00
2023-04-16T11:28:13.858Z,95006.00
2023-04-16T11:29:13.910Z,95004.00
2023-04-16T11:30:14.009Z,95006.00
2023-04-16T11:31:14.046Z,95008.00
2023-04-16T11:32:14.086Z,95004.00
2023-04-16T11:33:14.129Z,95004.00
2023-04-16T11:34:14.196Z,95006.00
2023-04-16T11:35:14.282Z,95008.00
2023-04-16T11:36:14.352Z,95004.00
2023-04-16T11:37:14.431Z,95008.00
2023-04-16T11:38:14.499Z,95006.00
2023-04-16T11:39:14.533Z,95006.00
2023-04-16T11:40:14.590Z,95006.00
2023-04-16T11:41:14.626Z,95006.00
2023-04-16T11:42:14.724Z,95002.00
2023-04-16T11:43:14.781Z,95002.00
2023-04-16T11:44:14.846Z,95002.00